Flight Track Log - Related Links

Times and Time Zones

All times are in EST time to prevent confusion due to time zone crossing. See the N76AD flight status page for this flight to view local times or setup timezone preferences in your user account.

Time Position Orientation Groundspeed Altitude Reporting Facility
EST Latitude Longitude Course Direction KTS MPH feet Rate Location/Type
Sat 09:40:00 PM 26.4989 -80.1411 336° Northwest  Level FlightAware Approximate
Sat 09:41:00 PM 26.5174 -80.1497 17° North  Level FlightAware Approximate
Sat 09:42:00 PM 26.5368 -80.1433 17° North  Level FlightAware Approximate
Sat 09:43:00 PM 26.5562 -80.1368 17° North  Level FlightAware Approximate
Sat 09:44:00 PM 26.5752 -80.1291 24° Northeast  Level FlightAware Approximate
Sat 09:45:00 PM 26.5937 -80.1198 24° Northeast  Level FlightAware Approximate
Sat 09:46:00 PM 26.6122 -80.1106 24° Northeast  Level FlightAware Approximate
Sat 09:47:00 PM 26.6306 -80.1014 24° Northeast  Level FlightAware Approximate
Sat 09:48:00 PM 26.6491 -80.0921 24° Northeast  Level FlightAware Approximate
Sat 09:49:00 PM 26.6676 -80.0837 343° North  Level FlightAware Approximate
Sat 09:49:46 PM 26.8464 -80.2908 343° North 128 147 5,000  Level Miami Center
Sat 09:50:00 PM 26.6870 -80.0905 343° North  Level FlightAware Approximate
Sat 09:50:44 PM 26.8836 -80.3011 346° North 128 147 5,000  Level Miami Center
Sat 09:51:00 PM 26.7063 -80.0973 343° North  Level FlightAware Approximate
Sat 09:51:45 PM 26.9125 -80.3114 342° North 128 147 5,000  Level Miami Center
Sat 09:52:00 PM 26.7256 -80.1041 343° North  Level FlightAware Approximate
Sat 09:52:45 PM 26.9478 -80.3194 348° North 136 157 5,000  Level Miami Center
Sat 09:53:00 PM 26.7449 -80.1109 343° North  Level FlightAware Approximate
Sat 09:53:45 PM 26.9875 -80.3275 350° North 136 157 5,000  Level Miami Center
Sat 09:54:00 PM 26.7642 -80.1177 343° North  Level FlightAware Approximate
Sat 09:54:46 PM 27.0228 -80.3333 352° North 131 151 5,000  Level Miami Center
Sat 09:55:44 PM 27.0581 -80.3436 345° North 131 151 5,100  Climbing Miami Center
Sat 09:56:45 PM 27.0892 -80.3517 347° North 125 144 5,000 -49 Descending Miami Center
Sat 09:57:46 PM 27.1306 -80.3597 350° North 125 144 5,000  Level Miami Center
Sat 09:58:45 PM 27.1639 -80.3678 348° North 125 144 5,000  Level Miami Center
Sat 09:59:46 PM 27.2014 -80.3761 349° North 125 144 5,000  Level Miami Center
Sat 10:00:44 PM 27.2344 -80.3817 352° North 125 144 5,000  Level Miami Center
Sat 10:01:46 PM 27.2678 -80.3897 348° North 125 144 5,000 49 Level Miami Center
Sat 10:02:46 PM 27.3072 -80.4003 347° North 125 144 5,100  Climbing Miami Center
Sat 10:03:45 PM 27.3444 -80.4083 349° North 125 144 5,000 -51 Descending Miami Center
Sat 10:04:44 PM 27.3800 -80.4142 352° North 125 144 5,000  Level Miami Center
Sat 10:05:44 PM 27.4131 -80.4247 344° North 125 144 5,000  Level Miami Center
Sat 10:06:44 PM 27.4483 -80.4328 349° North 125 144 5,000  Level Miami Center
Sat 10:07:45 PM 27.4900 -80.4411 350° North 125 144 5,000 50 Level Miami Center
Sat 10:08:45 PM 27.5250 -80.4539 342° North 125 144 5,100  Climbing Miami Center
Sat 10:09:44 PM 27.5561 -80.4619 347° North 125 144 5,000 -51 Descending Miami Center
Sat 10:10:43 PM 27.5936 -80.4678 352° North 125 144 5,000  Level Miami Center
Sat 10:11:46 PM 27.6331 -80.4783 347° North 125 144 5,000  Level Miami Center
Sat 10:12:47 PM 27.6661 -80.4886 345° North 125 144 5,000  Level Miami Center
Sat 10:13:44 PM 27.7014 -80.4969 348° North 125 144 5,000  Level Miami Center
Sat 10:15:59 PM 27.7833 -80.5167 348° North 129 148 5,000  Level Orlando TRACON
Sat 10:16:47 PM 27.8000 -80.5333 319° Northwest 130 150 5,000  Level Orlando TRACON
Sat 10:17:47 PM 27.8333 -80.5500 336° Northwest 130 150 5,000  Level Orlando TRACON
Sat 10:18:53 PM 27.8833 -80.5500 360° North 135 155 5,000  Level Orlando TRACON
Sat 10:19:47 PM 27.9167 -80.5667 336° Northwest 129 148 5,000  Level Orlando TRACON
Sat 10:20:47 PM 27.9500 -80.5833 336° Northwest 127 146 5,000  Level Orlando TRACON
Sat 10:21:53 PM 27.9833 -80.5833 360° North 129 148 5,000  Level Orlando TRACON
Sat 10:22:53 PM 28.0167 -80.6000 336° Northwest 130 150 5,000  Level Orlando TRACON
Sat 10:23:41 PM 28.0500 -80.6167 336° Northwest 124 143 5,000  Level Orlando TRACON
Sat 10:24:41 PM 28.0833 -80.6167 360° North 125 144 5,000  Level Orlando TRACON
Sat 10:25:59 PM 28.1167 -80.6333 336° Northwest 129 148 5,000 43 Level Orlando TRACON
Sat 10:26:59 PM 28.1500 -80.6500 336° Northwest 124 143 5,100  Climbing Orlando TRACON
Sat 10:27:59 PM 28.1833 -80.6667 336° Northwest 129 148 5,000  Descending Orlando TRACON
Sat 10:28:53 PM 28.2167 -80.6667 360° North 131 151 5,100  Climbing Orlando TRACON
Sat 10:29:53 PM 28.2500 -80.6833 336° Northwest 127 146 5,000  Descending Orlando TRACON
Sat 10:30:59 PM 28.2833 -80.7000 336° Northwest 126 145 5,100  Climbing Orlando TRACON
Sat 10:31:59 PM 28.3167 -80.7167 336° Northwest 127 146 5,000 -53 Descending Orlando TRACON
Sat 10:32:53 PM 28.3500 -80.7333 336° Northwest 126 145 5,000  Level Orlando TRACON
Sat 10:33:53 PM 28.3833 -80.7333 360° North 128 147 5,000  Level Orlando TRACON
Sat 10:34:41 PM 28.4167 -80.7500 336° Northwest 127 146 5,000  Level Orlando TRACON
Sat 10:35:41 PM 28.4500 -80.7667 336° Northwest 124 143 5,000  Level Orlando TRACON
Sat 10:36:41 PM 28.4667 -80.7833 319° Northwest 123 142 5,000  Level Orlando TRACON
Sat 10:37:35 PM 28.5000 -80.7833 360° North 124 143 5,000  Level Orlando TRACON
Sat 10:38:35 PM 28.5333 -80.8000 336° Northwest 127 146 5,000  Level Orlando TRACON
Sat 10:39:35 PM 28.5667 -80.8167 336° Northwest 128 147 5,000  Level Orlando TRACON
Sat 10:40:35 PM 28.6000 -80.8333 336° Northwest 129 148 5,000  Level Orlando TRACON
Sat 10:41:35 PM 28.6333 -80.8333 360° North 124 143 5,000  Level Orlando TRACON
Sat 10:42:41 PM 28.6833 -80.8500 344° North 126 145 5,000  Level Orlando TRACON
Sat 10:43:42 PM 28.7000 -80.8667 319° Northwest 128 147 5,000  Level Orlando TRACON
Sat 10:44:42 PM 28.7333 -80.8833 336° Northwest 126 145 5,000  Level Orlando TRACON
Sat 10:45:42 PM 28.7667 -80.9000 336° Northwest 127 146 5,000  Level Orlando TRACON
Sat 10:47:50 PM 28.8444 -80.9275 343° North 126 145 5,000  Level Jacksonville Center
Sat 10:48:50 PM 28.8781 -80.9411 340° North 127 146 5,000 -99 Level Jacksonville Center
Sat 10:49:51 PM 28.9117 -80.9594 334° Northwest 125 144 4,800 -295 Descending Jacksonville Center
Sat 10:50:52 PM 28.9433 -80.9731 339° North 121 139 4,400 -347 Descending Jacksonville Center
Sat 10:51:52 PM 28.9725 -80.9867 338° Northwest 116 133 4,100 -397 Descending Jacksonville Center
Sat 10:52:53 PM 28.9856 -81.0197 294° West 116 133 3,600 -470 Descending Jacksonville Center
Sat 10:53:47 PM 29.0006 -81.0481 301° West 115 132 3,200 -522 Descending Jacksonville Center
Sat 10:54:48 PM 29.0219 -81.0783 309° West 121 139 2,600 -492 Descending Jacksonville Center
Sat 10:55:49 PM 29.0453 -81.1089 311° West 123 142 2,200 -298 Descending Jacksonville Center
Sat 10:56:49 PM 29.0667 -81.1394 309° West 123 142 2,000 -283 Descending Jacksonville Center
Sat 10:57:56 PM 29.0775 -81.1772 288° West 114 131 1,600 -236 Descending Jacksonville Center
Sat 10:58:56 PM 29.0800 -81.2103 275° West 112 129 1,500  Descending Jacksonville Center
Sat 10:59:57 PM 29.1094 -81.2217 341° North 113 130 1,600 49 Climbing Jacksonville Center
Sat 11:00:58 PM 29.1236 -81.1931 60° Northeast 108 124 1,600  Level Jacksonville Center
Sat 11:01:58 PM 29.1381 -81.1619 62° Northeast 98 113 1,600 -198 Level Jacksonville Center
Sat 11:02:59 PM 29.1481 -81.1378 65° Northeast 87 100 1,200 -397 Descending Jacksonville Center
Sat 11:03:59 PM 29.1603 -81.1092 64° Northeast 92 106 800 -400 Descending Jacksonville Center
Sat 11:05:00 PM 29.1646 -81.0694 83° East  Level FlightAware Approximate
Sat 11:12:00 PM 29.1667 -81.0500 53° Northeast  Level FlightAware Approximate
Sat 11:13:00 PM 29.1799 -81.0581 53° Northeast  Level Estimated
Sat 11:14:00 PM 29.1799 -81.0581 53° Northeast  Level Estimated
Sat 11:15:00 PM 29.1799 -81.0581 53° Northeast  Level Estimated

Login

Don't have an account? Register now (free) for customized features, flight alerts, and more!